Terminal Aerodrome Forecast
Issued by NWS

Home | Current Version | Previous Version | Graphics & Text | Print | Product List | Glossary Off
Versions: 1 2 3 4 5 6 7 8 9 10 11 12 13 14 15 16 17 18 19 20 21 22 23 24 25

000
FTUS43 KABR 301100
TAFMBG
TAF
KMBG 301128Z 3012/3112 32012KT P6SM SKC
     FM301400 33014G21KT P6SM OVC025
     FM310200 03010KT P6SM SKC
     FM310800 13010KT P6SM SKC=

USA.gov is the U.S. government's official web portal to all federal, state and local government web resources and services.